Time;durP1;ratioP1;P1;durP2;ratioP2;P2;SDS_P1;SDS_P2;PMS_P1;PMS_P2;Temp;Humidity;BMP_temperature;BMP_pressure;BME280_temperature;BME280_humidity;BME280_pressure;Samples;Min_cycle;Max_cycle;Signal;HPM_P1;HPM_P2
2023/06/13 00:00:05;;;;;;;0.00;0.00;;;;;;;;;;5074644;28;20044;-80
2023/06/13 00:02:31;;;;;;;0.00;0.00;;;;;;;;;;5074762;28;20225;-80
2023/06/13 00:04:57;;;;;;;0.00;0.00;;;;;;;;;;5074601;28;20199;-80
2023/06/13 00:07:26;;;;;;;0.00;0.00;;;;;;;;;;5057837;28;20505;-80
2023/06/13 00:09:52;;;;;;;0.00;0.00;;;;;;;;;;5075614;28;20174;-80
2023/06/13 00:12:20;;;;;;;0.00;0.00;;;;;;;;;;5075350;28;20029;-80
2023/06/13 00:14:50;;;;;;;0.00;0.00;;;;;;;;;;5074400;28;20503;-80
2023/06/13 00:17:16;;;;;;;0.10;0.00;;;;;;;;;;5074736;28;20365;-81
2023/06/13 00:19:43;;;;;;;0.00;0.00;;;;;;;;;;5074006;28;20047;-81
2023/06/13 00:22:11;;;;;;;0.00;0.00;;;;;;;;;;5075067;28;20569;-81
2023/06/13 00:24:37;;;;;;;0.00;0.00;;;;;;;;;;5074089;28;20040;-80
2023/06/13 00:27:03;;;;;;;0.00;0.00;;;;;;;;;;5073811;28;20055;-81
2023/06/13 00:29:29;;;;;;;0.00;0.00;;;;;;;;;;5073765;28;20123;-80
2023/06/13 00:31:55;;;;;;;0.00;0.00;;;;;;;;;;5073798;28;20123;-80
2023/06/13 00:34:21;;;;;;;0.10;0.10;;;;;;;;;;5073824;28;20144;-80
2023/06/13 00:36:47;;;;;;;0.00;0.00;;;;;;;;;;5073808;28;20036;-80
2023/06/13 00:39:13;;;;;;;0.00;0.00;;;;;;;;;;5075140;28;20424;-80
2023/06/13 00:41:39;;;;;;;0.00;0.00;;;;;;;;;;5074892;28;20115;-80
2023/06/13 00:44:06;;;;;;;0.00;0.00;;;;;;;;;;5073654;28;20049;-81
2023/06/13 00:46:34;;;;;;;0.00;0.00;;;;;;;;;;5074973;28;20072;-80
2023/06/13 00:49:01;;;;;;;0.00;0.00;;;;;;;;;;5075095;28;20102;-80
2023/06/13 00:51:28;;;;;;;0.00;0.00;;;;;;;;;;5073233;28;20037;-80
2023/06/13 00:53:55;;;;;;;0.00;0.00;;;;;;;;;;5073525;28;20044;-80
2023/06/13 00:56:23;;;;;;;0.00;0.00;;;;;;;;;;5073228;28;20048;-80
2023/06/13 00:58:50;;;;;;;0.00;0.00;;;;;;;;;;5056768;28;20105;-80
2023/06/13 01:01:19;;;;;;;0.00;0.00;;;;;;;;;;5073309;28;20461;-80
2023/06/13 01:03:45;;;;;;;0.00;0.00;;;;;;;;;;5073588;28;20051;-81
2023/06/13 01:06:14;;;;;;;0.00;0.00;;;;;;;;;;5073242;28;20063;-81
2023/06/13 01:08:40;;;;;;;0.00;0.00;;;;;;;;;;5073518;28;20263;-81
2023/06/13 01:11:17;;;;;;;0.00;0.00;;;;;;;;;;5073256;28;20044;-81
2023/06/13 01:13:47;;;;;;;0.00;0.00;;;;;;;;;;5074607;28;20036;-80
2023/06/13 01:16:28;;;;;;;0.00;0.00;;;;;;;;;;5073201;28;20040;-80
2023/06/13 01:18:55;;;;;;;0.00;0.00;;;;;;;;;;5073086;28;20230;-81
2023/06/13 01:21:24;;;;;;;0.00;0.00;;;;;;;;;;5072741;28;20124;-80
2023/06/13 01:23:57;;;;;;;0.00;0.00;;;;;;;;;;5073127;28;20079;-80
2023/06/13 01:26:33;;;;;;;0.00;0.00;;;;;;;;;;5074174;28;20052;-80
2023/06/13 01:29:00;;;;;;;0.00;0.00;;;;;;;;;;5072843;28;20504;-80
2023/06/13 01:31:26;;;;;;;0.00;0.00;;;;;;;;;;5072670;28;20072;-80
2023/06/13 01:33:54;;;;;;;0.00;0.00;;;;;;;;;;5074023;28;20045;-80
2023/06/13 01:36:20;;;;;;;0.00;0.00;;;;;;;;;;5072693;28;20037;-80
2023/06/13 01:38:46;;;;;;;0.00;0.00;;;;;;;;;;5074149;28;20043;-80
2023/06/13 01:41:12;;;;;;;0.00;0.00;;;;;;;;;;5072352;28;20119;-80
2023/06/13 01:43:38;;;;;;;0.00;0.00;;;;;;;;;;5073940;28;20128;-80
2023/06/13 01:46:13;;;;;;;0.00;0.00;;;;;;;;;;5072494;28;20128;-80
2023/06/13 01:48:58;;;;;;;0.00;0.00;;;;;;;;;;5073722;28;20094;-82
2023/06/13 01:51:24;;;;;;;0.00;0.00;;;;;;;;;;5073389;28;20040;-80
2023/06/13 01:53:54;;;;;;;0.00;0.00;;;;;;;;;;5072468;28;20098;-81
2023/06/13 01:56:22;;;;;;;0.00;0.00;;;;;;;;;;5071962;28;20133;-81
2023/06/13 01:59:04;;;;;;;0.00;0.00;;;;;;;;;;5073534;28;20044;-81
2023/06/13 02:01:34;;;;;;;0.00;0.00;;;;;;;;;;5072008;28;20040;-81
2023/06/13 02:04:00;;;;;;;0.00;0.00;;;;;;;;;;5072345;28;20084;-81
2023/06/13 02:06:29;;;;;;;0.00;0.00;;;;;;;;;;5073316;28;20048;-81
2023/06/13 02:08:57;;;;;;;0.00;0.00;;;;;;;;;;5072043;28;20051;-81
2023/06/13 02:11:23;;;;;;;0.00;0.00;;;;;;;;;;5072974;28;20041;-81
2023/06/13 02:13:50;;;;;;;0.00;0.00;;;;;;;;;;5055278;28;20044;-79
2023/06/13 02:16:18;;;;;;;0.43;0.35;;;;;;;;;;5073297;28;20044;-81
2023/06/13 02:18:45;;;;;;;0.00;0.00;;;;;;;;;;5055117;28;20043;-81
2023/06/13 02:21:11;;;;;;;0.20;0.10;;;;;;;;;;5071938;28;20040;-81
2023/06/13 02:23:37;;;;;;;0.00;0.00;;;;;;;;;;5072902;28;20048;-80
2023/06/13 02:26:03;;;;;;;0.00;0.00;;;;;;;;;;5071861;28;20182;-81
2023/06/13 02:28:28;;;;;;;0.00;0.00;;;;;;;;;;5073047;28;20052;-83
2023/06/13 02:30:55;;;;;;;0.00;0.00;;;;;;;;;;5071874;28;20094;-80
2023/06/13 02:33:20;;;;;;;0.00;0.00;;;;;;;;;;5072838;28;20045;-81
2023/06/13 02:35:46;;;;;;;0.00;0.00;;;;;;;;;;5073080;28;20037;-81
2023/06/13 02:38:13;;;;;;;0.00;0.00;;;;;;;;;;5072707;28;20040;-81
2023/06/13 02:40:39;;;;;;;0.00;0.00;;;;;;;;;;5071682;28;20092;-80
2023/06/13 02:43:05;;;;;;;0.00;0.00;;;;;;;;;;5071375;28;20045;-81
2023/06/13 02:45:31;;;;;;;0.00;0.00;;;;;;;;;;5072950;28;20036;-80
2023/06/13 02:47:58;;;;;;;0.00;0.00;;;;;;;;;;5071480;28;20041;-81
2023/06/13 02:50:24;;;;;;;0.00;0.00;;;;;;;;;;5072744;28;20063;-81
2023/06/13 02:52:50;;;;;;;0.00;0.00;;;;;;;;;;5071425;28;20052;-81
2023/06/13 02:55:17;;;;;;;0.00;0.00;;;;;;;;;;5071410;28;20052;-81
2023/06/13 02:57:44;;;;;;;0.00;0.00;;;;;;;;;;5071290;28;20047;-81
2023/06/13 03:00:11;;;;;;;0.00;0.00;;;;;;;;;;5071449;28;20048;-81
2023/06/13 03:02:37;;;;;;;0.00;0.00;;;;;;;;;;5072633;28;20063;-81
2023/06/13 03:05:07;;;;;;;0.00;0.00;;;;;;;;;;5071603;28;20040;-80
2023/06/13 03:07:33;;;;;;;0.00;0.00;;;;;;;;;;5071098;28;20119;-80
2023/06/13 03:10:00;;;;;;;0.00;0.00;;;;;;;;;;5071598;28;20040;-80
2023/06/13 03:12:26;;;;;;;0.00;0.00;;;;;;;;;;5071286;28;20044;-81
2023/06/13 03:14:52;;;;;;;0.00;0.00;;;;;;;;;;5072878;28;20119;-80
2023/06/13 03:17:19;;;;;;;0.00;0.00;;;;;;;;;;5054489;28;20076;-80
2023/06/13 03:19:45;;;;;;;0.00;0.00;;;;;;;;;;5071116;28;20051;-80
2023/06/13 03:22:13;;;;;;;0.00;0.00;;;;;;;;;;5071002;28;20040;-80
2023/06/13 03:24:42;;;;;;;0.05;0.00;;;;;;;;;;5072541;28;20050;-80
2023/06/13 03:27:12;;;;;;;0.00;0.00;;;;;;;;;;5072328;28;20044;-80
2023/06/13 03:29:41;;;;;;;0.00;0.00;;;;;;;;;;5071333;28;20052;-80
2023/06/13 03:32:10;;;;;;;0.00;0.00;;;;;;;;;;5072368;28;20045;-81
2023/06/13 03:34:40;;;;;;;0.00;0.00;;;;;;;;;;5074669;28;20048;-80
2023/06/13 03:37:06;;;;;;;0.00;0.00;;;;;;;;;;5074991;28;20037;-81
2023/06/13 03:39:32;;;;;;;0.00;0.00;;;;;;;;;;5074733;28;20181;-81
2023/06/13 03:41:59;;;;;;;0.00;0.00;;;;;;;;;;5074911;28;20041;-80
2023/06/13 03:44:25;;;;;;;0.00;0.00;;;;;;;;;;5076141;28;20041;-81
2023/06/13 03:46:52;;;;;;;0.00;0.00;;;;;;;;;;5075090;28;20227;-81
2023/06/13 03:49:21;;;;;;;0.38;0.32;;;;;;;;;;5075836;28;20037;-80
2023/06/13 03:51:47;;;;;;;0.00;0.00;;;;;;;;;;5074780;28;20054;-81
2023/06/13 03:54:13;;;;;;;0.00;0.00;;;;;;;;;;5074559;28;20048;-81
2023/06/13 03:56:39;;;;;;;0.00;0.00;;;;;;;;;;5075827;28;20060;-81
2023/06/13 03:59:05;;;;;;;0.00;0.00;;;;;;;;;;5075903;28;20098;-81
2023/06/13 04:01:31;;;;;;;0.00;0.00;;;;;;;;;;5076075;28;20048;-81
2023/06/13 04:03:57;;;;;;;0.00;0.00;;;;;;;;;;5074479;28;20176;-81
2023/06/13 04:06:23;;;;;;;0.00;0.00;;;;;;;;;;5075839;28;20480;-81
2023/06/13 04:08:50;;;;;;;0.00;0.00;;;;;;;;;;5074468;28;20048;-81
2023/06/13 04:11:16;;;;;;;0.00;0.00;;;;;;;;;;5074650;28;20372;-81
2023/06/13 04:13:42;;;;;;;0.00;0.00;;;;;;;;;;5075476;28;20047;-81
2023/06/13 04:16:08;;;;;;;0.00;0.00;;;;;;;;;;5075755;28;20040;-81
2023/06/13 04:18:37;;;;;;;0.00;0.00;;;;;;;;;;5075353;28;20044;-81
2023/06/13 04:21:03;;;;;;;0.00;0.00;;;;;;;;;;5074078;28;20087;-80
2023/06/13 04:23:29;;;;;;;0.00;0.00;;;;;;;;;;5073950;28;20055;-81
2023/06/13 04:25:57;;;;;;;0.00;0.00;;;;;;;;;;5074116;28;20044;-81
2023/06/13 04:28:24;;;;;;;0.00;0.00;;;;;;;;;;5074018;28;20086;-81
2023/06/13 04:30:51;;;;;;;0.00;0.00;;;;;;;;;;5074119;28;20052;-81
2023/06/13 04:33:17;;;;;;;0.00;0.00;;;;;;;;;;5073705;28;20087;-81
2023/06/13 04:35:48;;;;;;;0.00;0.00;;;;;;;;;;5074183;28;20053;-80
2023/06/13 04:38:21;;;;;;;0.00;0.00;;;;;;;;;;5073896;28;20151;-80
2023/06/13 04:40:48;;;;;;;0.00;0.00;;;;;;;;;;5074078;28;20036;-81
2023/06/13 04:43:15;;;;;;;0.00;0.00;;;;;;;;;;5056988;28;20048;-80
2023/06/13 04:45:44;;;;;;;0.00;0.00;;;;;;;;;;5073716;28;20118;-81
2023/06/13 04:48:11;;;;;;;0.00;0.00;;;;;;;;;;5075102;28;20083;-80
2023/06/13 04:50:40;;;;;;;0.00;0.00;;;;;;;;;;5073966;28;20040;-81
2023/06/13 04:53:08;;;;;;;0.00;0.00;;;;;;;;;;5056858;28;20480;-81
2023/06/13 04:55:37;;;;;;;0.00;0.00;;;;;;;;;;5073578;28;20160;-81
2023/06/13 04:58:03;;;;;;;0.00;0.00;;;;;;;;;;5073504;28;20181;-81
2023/06/13 05:00:30;;;;;;;0.00;0.00;;;;;;;;;;5073723;28;20051;-81
2023/06/13 05:02:56;;;;;;;0.00;0.00;;;;;;;;;;5073642;28;20074;-81
2023/06/13 05:05:23;;;;;;;0.00;0.00;;;;;;;;;;5056578;28;20472;-81
2023/06/13 05:07:55;;;;;;;0.00;0.00;;;;;;;;;;5073408;28;20059;-81
2023/06/13 05:10:21;;;;;;;0.00;0.00;;;;;;;;;;5056720;28;20095;-81
2023/06/13 05:12:47;;;;;;;0.00;0.00;;;;;;;;;;5074619;28;20045;-81
2023/06/13 05:15:13;;;;;;;0.00;0.00;;;;;;;;;;5074534;28;20162;-81
2023/06/13 05:17:39;;;;;;;0.00;0.00;;;;;;;;;;5073609;28;20043;-81
2023/06/13 05:20:06;;;;;;;0.00;0.00;;;;;;;;;;5074252;28;20036;-81
2023/06/13 05:22:32;;;;;;;0.00;0.00;;;;;;;;;;5074303;28;20040;-81
2023/06/13 05:24:59;;;;;;;0.03;0.00;;;;;;;;;;5073052;28;20416;-80
2023/06/13 05:27:26;;;;;;;0.00;0.00;;;;;;;;;;5074177;28;20115;-81
2023/06/13 05:29:51;;;;;;;0.03;0.03;;;;;;;;;;5056350;28;20029;-81
2023/06/13 05:32:17;;;;;;;0.00;0.00;;;;;;;;;;5056522;28;20537;-81
2023/06/13 05:34:43;;;;;;;0.00;0.00;;;;;;;;;;5072619;28;20040;-80
2023/06/13 05:37:10;;;;;;;0.00;0.00;;;;;;;;;;5072771;28;20047;-80
2023/06/13 05:39:37;;;;;;;0.30;0.10;;;;;;;;;;5073867;28;20507;-81
2023/06/13 05:42:03;;;;;;;0.00;0.00;;;;;;;;;;5074009;28;20092;-80
2023/06/13 05:44:29;;;;;;;0.00;0.00;;;;;;;;;;5072297;28;20459;-80
2023/06/13 05:46:55;;;;;;;0.00;0.00;;;;;;;;;;5074017;28;20041;-80
2023/06/13 05:49:21;;;;;;;0.00;0.00;;;;;;;;;;5072265;28;20388;-80
2023/06/13 05:51:47;;;;;;;0.00;0.00;;;;;;;;;;5072596;28;20044;-81
2023/06/13 05:54:13;;;;;;;0.00;0.00;;;;;;;;;;5072211;28;20098;-80
2023/06/13 05:56:39;;;;;;;0.00;0.00;;;;;;;;;;5071901;28;20063;-81
2023/06/13 05:59:05;;;;;;;0.00;0.00;;;;;;;;;;5072143;28;20079;-81
2023/06/13 06:01:33;;;;;;;0.00;0.00;;;;;;;;;;5072484;28;20040;-80
2023/06/13 06:03:59;;;;;;;0.00;0.00;;;;;;;;;;5072140;28;20095;-80
2023/06/13 06:06:25;;;;;;;0.20;0.03;;;;;;;;;;5073539;28;20483;-80
2023/06/13 06:08:51;;;;;;;0.00;0.00;;;;;;;;;;5072199;28;20051;-81
2023/06/13 06:11:17;;;;;;;0.00;0.00;;;;;;;;;;5073362;28;20120;-80
2023/06/13 06:13:43;;;;;;;0.00;0.00;;;;;;;;;;5071879;28;20136;-81
2023/06/13 06:16:10;;;;;;;0.00;0.00;;;;;;;;;;5071990;28;20036;-80
2023/06/13 06:18:36;;;;;;;0.32;0.28;;;;;;;;;;5072004;28;20045;-80
2023/06/13 06:21:03;;;;;;;0.00;0.00;;;;;;;;;;5071658;28;20170;-81
2023/06/13 06:23:29;;;;;;;0.00;0.00;;;;;;;;;;5071815;28;20086;-81
2023/06/13 06:25:55;;;;;;;0.00;0.00;;;;;;;;;;5071919;28;20361;-81
2023/06/13 06:28:21;;;;;;;0.00;0.00;;;;;;;;;;5071834;28;20056;-80
2023/06/13 06:30:47;;;;;;;0.00;0.00;;;;;;;;;;5071689;28;20098;-81
2023/06/13 06:33:13;;;;;;;0.00;0.00;;;;;;;;;;5071881;28;20048;-81
2023/06/13 06:35:39;;;;;;;0.00;0.00;;;;;;;;;;5071594;28;20040;-81
2023/06/13 06:38:05;;;;;;;0.00;0.00;;;;;;;;;;5071603;28;20040;-82
2023/06/13 06:40:31;;;;;;;0.00;0.00;;;;;;;;;;5071290;28;20097;-83
2023/06/13 06:42:56;;;;;;;0.00;0.00;;;;;;;;;;5071617;28;20045;-81
2023/06/13 06:45:22;;;;;;;0.00;0.00;;;;;;;;;;5071440;28;20083;-81
2023/06/13 06:47:50;;;;;;;0.00;0.00;;;;;;;;;;5071445;28;20526;-81
2023/06/13 06:50:16;;;;;;;0.00;0.00;;;;;;;;;;5072454;28;20080;-81
2023/06/13 06:52:44;;;;;;;0.00;0.00;;;;;;;;;;5073728;28;20048;-81
2023/06/13 06:55:10;;;;;;;0.15;0.00;;;;;;;;;;5072872;28;20040;-82
2023/06/13 06:57:36;;;;;;;0.00;0.00;;;;;;;;;;5071384;28;20448;-84
2023/06/13 07:00:03;;;;;;;0.00;0.00;;;;;;;;;;5070892;28;20047;-81
2023/06/13 07:02:29;;;;;;;0.00;0.00;;;;;;;;;;5054609;28;20113;-90
2023/06/13 07:04:55;;;;;;;0.00;0.00;;;;;;;;;;5071780;28;20044;-84
2023/06/13 07:07:21;;;;;;;0.00;0.00;;;;;;;;;;5053686;28;20116;-82
2023/06/13 07:09:47;;;;;;;0.00;0.00;;;;;;;;;;5072107;28;20111;-82
2023/06/13 07:12:13;;;;;;;0.00;0.00;;;;;;;;;;5072301;28;20079;-81
2023/06/13 07:14:39;;;;;;;0.00;0.00;;;;;;;;;;5070724;28;20048;-82
2023/06/13 07:17:05;;;;;;;0.00;0.00;;;;;;;;;;5072343;28;20356;-81
2023/06/13 07:19:31;;;;;;;0.00;0.00;;;;;;;;;;5070743;28;20048;-82
2023/06/13 07:21:57;;;;;;;0.00;0.00;;;;;;;;;;5070888;28;20045;-82
2023/06/13 07:24:23;;;;;;;0.00;0.00;;;;;;;;;;5070980;28;20047;-82
2023/06/13 07:26:51;;;;;;;0.00;0.00;;;;;;;;;;5071994;28;20078;-82
2023/06/13 07:29:17;;;;;;;0.00;0.00;;;;;;;;;;5071091;28;20051;-81
2023/06/13 07:31:43;;;;;;;0.00;0.00;;;;;;;;;;5070939;28;20032;-82
2023/06/13 07:34:10;;;;;;;0.00;0.00;;;;;;;;;;5070946;28;20041;-81
2023/06/13 07:36:37;;;;;;;0.00;0.00;;;;;;;;;;5071914;28;20040;-82
2023/06/13 07:39:13;;;;;;;0.00;0.00;;;;;;;;;;5054217;28;20040;-82
2023/06/13 07:41:39;;;;;;;0.00;0.00;;;;;;;;;;5071942;28;20541;-81
2023/06/13 07:44:06;;;;;;;0.00;0.00;;;;;;;;;;5070884;28;20090;-82
2023/06/13 07:46:32;;;;;;;0.00;0.00;;;;;;;;;;5070860;28;20039;-83
2023/06/13 07:48:58;;;;;;;0.00;0.00;;;;;;;;;;5072376;28;20048;-82
2023/06/13 07:51:24;;;;;;;0.00;0.00;;;;;;;;;;5071087;28;20047;-82
2023/06/13 07:53:50;;;;;;;0.00;0.00;;;;;;;;;;5071150;28;20044;-84
2023/06/13 07:56:16;;;;;;;0.00;0.00;;;;;;;;;;5071969;28;20059;-83
2023/06/13 07:58:42;;;;;;;0.00;0.00;;;;;;;;;;5072420;28;20072;-83
2023/06/13 08:01:10;;;;;;;0.05;0.00;;;;;;;;;;5071920;28;20033;-83
2023/06/13 08:03:36;;;;;;;0.00;0.00;;;;;;;;;;5072275;28;20097;-88
2023/06/13 08:06:02;;;;;;;0.00;0.00;;;;;;;;;;5070784;28;20131;-84
2023/06/13 08:08:28;;;;;;;0.00;0.00;;;;;;;;;;5070759;28;20040;-84
2023/06/13 08:10:54;;;;;;;0.00;0.00;;;;;;;;;;5070215;28;20040;-84
2023/06/13 08:13:20;;;;;;;0.00;0.00;;;;;;;;;;5070567;28;20040;-84
2023/06/13 08:15:46;;;;;;;0.00;0.00;;;;;;;;;;5070445;28;20040;-84
2023/06/13 08:18:12;;;;;;;0.00;0.00;;;;;;;;;;5070801;28;20395;-83
2023/06/13 08:20:38;;;;;;;0.00;0.00;;;;;;;;;;5074967;28;20040;-82
2023/06/13 08:23:04;;;;;;;0.00;0.00;;;;;;;;;;5058289;28;20456;-82
2023/06/13 08:25:30;;;;;;;0.00;0.00;;;;;;;;;;5075183;28;20036;-83
2023/06/13 08:27:56;;;;;;;0.00;0.00;;;;;;;;;;5074596;28;20123;-83
2023/06/13 08:30:22;;;;;;;0.00;0.00;;;;;;;;;;5075887;28;20040;-83
2023/06/13 08:32:52;;;;;;;0.00;0.00;;;;;;;;;;5074476;28;20568;-84
2023/06/13 08:35:18;;;;;;;0.00;0.00;;;;;;;;;;5075695;28;20345;-83
2023/06/13 08:37:44;;;;;;;0.00;0.00;;;;;;;;;;5075917;28;20376;-83
2023/06/13 08:40:10;;;;;;;0.00;0.00;;;;;;;;;;5074184;28;20041;-83
2023/06/13 08:42:37;;;;;;;0.00;0.00;;;;;;;;;;5074125;28;20227;-84
2023/06/13 08:45:03;;;;;;;0.00;0.00;;;;;;;;;;5074014;28;20072;-83
2023/06/13 08:47:30;;;;;;;0.00;0.00;;;;;;;;;;5074983;28;20043;-83
2023/06/13 08:49:56;;;;;;;0.00;0.00;;;;;;;;;;5073743;28;20124;-83
2023/06/13 08:52:23;;;;;;;0.00;0.00;;;;;;;;;;5073649;28;20090;-83
2023/06/13 08:54:53;;;;;;;0.00;0.00;;;;;;;;;;5075030;28;20546;-84
2023/06/13 08:57:19;;;;;;;0.00;0.00;;;;;;;;;;5073500;28;20084;-84
2023/06/13 08:59:48;;;;;;;0.00;0.00;;;;;;;;;;5073734;28;20123;-84
2023/06/13 09:02:15;;;;;;;0.00;0.00;;;;;;;;;;5073715;28;20391;-84
2023/06/13 09:04:43;;;;;;;0.00;0.00;;;;;;;;;;5073656;28;20102;-85
2023/06/13 09:07:10;;;;;;;0.00;0.00;;;;;;;;;;5073510;28;20068;-83
2023/06/13 09:09:37;;;;;;;0.00;0.00;;;;;;;;;;5073602;28;20051;-84
2023/06/13 09:12:06;;;;;;;0.00;0.00;;;;;;;;;;5073233;28;20100;-82
2023/06/13 09:14:32;;;;;;;0.00;0.00;;;;;;;;;;5074497;28;20049;-84
2023/06/13 09:16:58;;;;;;;0.28;0.00;;;;;;;;;;5073107;28;20044;-84
2023/06/13 09:19:24;;;;;;;0.00;0.00;;;;;;;;;;5073410;28;20494;-86
2023/06/13 09:21:50;;;;;;;0.00;0.00;;;;;;;;;;5072943;28;20040;-83
2023/06/13 09:24:17;;;;;;;0.00;0.00;;;;;;;;;;5073453;28;20453;-84
2023/06/13 09:26:45;;;;;;;0.00;0.00;;;;;;;;;;5074529;28;20040;-83
2023/06/13 09:29:11;;;;;;;0.00;0.00;;;;;;;;;;5056306;28;20048;-83
2023/06/13 09:31:38;;;;;;;0.10;0.00;;;;;;;;;;5072307;28;20049;-84
2023/06/13 09:34:06;;;;;;;0.00;0.00;;;;;;;;;;5073051;28;20045;-84
2023/06/13 09:36:34;;;;;;;0.00;0.00;;;;;;;;;;5074266;28;20125;-87
2023/06/13 09:39:00;;;;;;;0.00;0.00;;;;;;;;;;5056201;28;20488;-82
2023/06/13 09:41:30;;;;;;;0.00;0.00;;;;;;;;;;5074060;28;20400;-83
2023/06/13 09:43:56;;;;;;;0.00;0.00;;;;;;;;;;5072764;28;20044;-82
2023/06/13 09:46:24;;;;;;;0.00;0.00;;;;;;;;;;5072883;28;20071;-82
2023/06/13 09:48:50;;;;;;;0.00;0.00;;;;;;;;;;5074027;28;20111;-83
2023/06/13 09:51:16;;;;;;;0.00;0.00;;;;;;;;;;5072719;28;20479;-82
2023/06/13 09:53:47;;;;;;;0.00;0.00;;;;;;;;;;5072614;28;20080;-82
2023/06/13 09:56:13;;;;;;;0.00;0.00;;;;;;;;;;5073364;28;20132;-82
2023/06/13 09:58:39;;;;;;;0.00;0.00;;;;;;;;;;5072668;28;20090;-82
2023/06/13 10:01:11;;;;;;;0.00;0.00;;;;;;;;;;5072459;28;20400;-82
2023/06/13 10:03:37;;;;;;;0.00;0.00;;;;;;;;;;5072528;28;20056;-82
2023/06/13 10:06:03;;;;;;;0.10;0.00;;;;;;;;;;5055968;28;20341;-82
2023/06/13 10:08:31;;;;;;;0.00;0.00;;;;;;;;;;5072525;28;20196;-82
2023/06/13 10:10:58;;;;;;;0.00;0.00;;;;;;;;;;5072320;28;20204;-82
2023/06/13 10:13:29;;;;;;;0.00;0.00;;;;;;;;;;5073441;28;20259;-82
2023/06/13 10:15:57;;;;;;;0.00;0.00;;;;;;;;;;5073333;28;20373;-82
2023/06/13 10:18:29;;;;;;;4.10;0.20;;;;;;;;;;5072071;28;20037;-86
2023/06/13 10:20:56;;;;;;;0.00;0.00;;;;;;;;;;5073296;28;20049;-82
2023/06/13 10:23:23;;;;;;;0.00;0.00;;;;;;;;;;5073265;28;20044;-82
2023/06/13 10:25:54;;;;;;;0.00;0.00;;;;;;;;;;5072422;28;20384;-80
2023/06/13 10:28:45;;;;;;;0.00;0.00;;;;;;;;;;5075367;28;20048;-81
2023/06/13 10:31:26;;;;;;;0.00;0.00;;;;;;;;;;5061432;28;20052;-81
2023/06/13 10:34:10;;;;;;;0.00;0.00;;;;;;;;;;5076139;28;20360;-81
2023/06/13 10:36:45;;;;;;;0.00;0.00;;;;;;;;;;5073290;28;20435;-82
2023/06/13 10:39:22;;;;;;;0.00;0.00;;;;;;;;;;5055084;28;20044;-81
2023/06/13 10:42:02;;;;;;;0.00;0.00;;;;;;;;;;5071422;28;20040;-82
2023/06/13 10:44:33;;;;;;;0.00;0.00;;;;;;;;;;5071685;28;20068;-82
2023/06/13 10:46:59;;;;;;;0.00;0.00;;;;;;;;;;5071452;28;20067;-81
2023/06/13 10:49:34;;;;;;;0.00;0.00;;;;;;;;;;5072621;28;20036;-82
2023/06/13 10:52:00;;;;;;;0.00;0.00;;;;;;;;;;5054629;28;20040;-83
2023/06/13 10:54:26;;;;;;;0.00;0.00;;;;;;;;;;5038057;28;20059;-81
2023/06/13 10:56:52;;;;;;;0.00;0.00;;;;;;;;;;5070925;28;20092;-81
2023/06/13 10:59:18;;;;;;;0.00;0.00;;;;;;;;;;5071265;28;20048;-81
2023/06/13 11:01:45;;;;;;;0.00;0.00;;;;;;;;;;5071084;28;20041;-81
2023/06/13 11:04:15;;;;;;;0.00;0.00;;;;;;;;;;5071538;28;20373;-81
2023/06/13 11:06:43;;;;;;;0.00;0.00;;;;;;;;;;5072243;28;20052;-81
2023/06/13 11:09:09;;;;;;;0.00;0.00;;;;;;;;;;5071367;28;20052;-81
2023/06/13 11:11:43;;;;;;;0.00;0.00;;;;;;;;;;5071309;28;20045;-81
2023/06/13 11:14:09;;;;;;;0.00;0.00;;;;;;;;;;5071103;28;20049;-81
2023/06/13 11:16:37;;;;;;;0.00;0.00;;;;;;;;;;5072515;28;20036;-81
2023/06/13 11:19:06;;;;;;;0.00;0.00;;;;;;;;;;5072463;28;20047;-81
2023/06/13 11:21:33;;;;;;;0.00;0.00;;;;;;;;;;5071402;28;20071;-81
2023/06/13 11:23:59;;;;;;;0.00;0.00;;;;;;;;;;5071271;28;20126;-81
2023/06/13 11:26:25;;;;;;;0.00;0.00;;;;;;;;;;5072508;28;20468;-81
2023/06/13 11:28:52;;;;;;;0.00;0.00;;;;;;;;;;5070879;28;20109;-81
2023/06/13 11:31:19;;;;;;;0.00;0.00;;;;;;;;;;5070899;28;20052;-82
2023/06/13 11:33:50;;;;;;;0.00;0.00;;;;;;;;;;5070497;28;20122;-81
2023/06/13 11:36:17;;;;;;;0.00;0.00;;;;;;;;;;5072354;28;20087;-82
2023/06/13 11:39:03;;;;;;;0.00;0.00;;;;;;;;;;5071949;28;20485;-82
2023/06/13 11:41:29;;;;;;;0.00;0.00;;;;;;;;;;5070786;28;20119;-82
2023/06/13 11:43:58;;;;;;;0.00;0.00;;;;;;;;;;5071839;28;20488;-82
2023/06/13 11:46:24;;;;;;;0.00;0.00;;;;;;;;;;5072012;28;20135;-82
2023/06/13 11:48:54;;;;;;;0.00;0.00;;;;;;;;;;5070953;28;20040;-82
2023/06/13 11:51:20;;;;;;;0.00;0.00;;;;;;;;;;5070766;28;20446;-81
2023/06/13 11:53:50;;;;;;;0.00;0.00;;;;;;;;;;5072531;28;20040;-82
2023/06/13 11:56:20;;;;;;;0.00;0.00;;;;;;;;;;5074566;28;20494;-82
2023/06/13 11:58:46;;;;;;;0.00;0.00;;;;;;;;;;5074524;28;20492;-82
2023/06/13 12:01:13;;;;;;;0.00;0.00;;;;;;;;;;5074634;28;20120;-82
2023/06/13 12:03:41;;;;;;;0.13;0.10;;;;;;;;;;5074553;28;20092;-83
2023/06/13 12:06:07;;;;;;;0.00;0.00;;;;;;;;;;5074972;28;20391;-83
2023/06/13 12:08:38;;;;;;;0.00;0.00;;;;;;;;;;5074383;28;20051;-83
2023/06/13 12:11:08;;;;;;;0.00;0.00;;;;;;;;;;5074697;28;20056;-82
2023/06/13 12:13:34;;;;;;;0.00;0.00;;;;;;;;;;5075668;28;20056;-82
2023/06/13 12:16:00;;;;;;;0.00;0.00;;;;;;;;;;5074845;28;20345;-81
2023/06/13 12:18:28;;;;;;;0.00;0.00;;;;;;;;;;5074117;28;20047;-82
2023/06/13 12:20:56;;;;;;;0.00;0.00;;;;;;;;;;5074464;28;20036;-82
2023/06/13 12:23:22;;;;;;;0.00;0.00;;;;;;;;;;5074340;28;20088;-82
2023/06/13 12:25:49;;;;;;;0.00;0.00;;;;;;;;;;5075807;28;20052;-83
2023/06/13 12:28:15;;;;;;;0.00;0.00;;;;;;;;;;5074728;28;20329;-82
2023/06/13 12:30:49;;;;;;;0.00;0.00;;;;;;;;;;5076109;28;20055;-82
2023/06/13 12:33:18;;;;;;;0.00;0.00;;;;;;;;;;5074590;28;20429;-82
2023/06/13 12:35:57;;;;;;;0.00;0.00;;;;;;;;;;5074610;28;20116;-82
2023/06/13 12:38:27;;;;;;;0.00;0.00;;;;;;;;;;5075127;28;20403;-83
2023/06/13 12:40:53;;;;;;;0.00;0.00;;;;;;;;;;5074311;28;20110;-81
2023/06/13 12:43:25;;;;;;;0.00;0.00;;;;;;;;;;5075267;28;20050;-82
2023/06/13 12:45:55;;;;;;;0.03;0.03;;;;;;;;;;5074412;28;20404;-82
2023/06/13 12:48:21;;;;;;;0.00;0.00;;;;;;;;;;5073746;28;20048;-82
2023/06/13 12:50:48;;;;;;;0.00;0.00;;;;;;;;;;5073879;28;20048;-82
2023/06/13 12:53:19;;;;;;;0.00;0.00;;;;;;;;;;5074816;28;20041;-83
2023/06/13 12:55:48;;;;;;;0.00;0.00;;;;;;;;;;5075202;28;20067;-82
2023/06/13 12:58:33;;;;;;;0.00;0.00;;;;;;;;;;5073631;28;20044;-82
2023/06/13 13:01:00;;;;;;;0.00;0.00;;;;;;;;;;5073780;28;20037;-82
2023/06/13 13:03:26;;;;;;;0.00;0.00;;;;;;;;;;5073435;28;20044;-82
2023/06/13 13:05:55;;;;;;;0.00;0.00;;;;;;;;;;5073589;28;20040;-82
2023/06/13 13:08:22;;;;;;;0.00;0.00;;;;;;;;;;5073597;28;20110;-82
2023/06/13 13:10:48;;;;;;;0.00;0.00;;;;;;;;;;5074775;28;20419;-82
2023/06/13 13:13:15;;;;;;;0.00;0.00;;;;;;;;;;5073248;28;20101;-82
2023/06/13 13:15:41;;;;;;;0.00;0.00;;;;;;;;;;5056947;28;20049;-83
2023/06/13 13:18:07;;;;;;;0.00;0.00;;;;;;;;;;5073560;28;20041;-82
2023/06/13 13:20:34;;;;;;;0.00;0.00;;;;;;;;;;5081145;28;20037;-82
2023/06/13 13:23:03;;;;;;;0.00;0.00;;;;;;;;;;5076089;28;20391;-82
2023/06/13 13:25:28;;;;;;;0.00;0.00;;;;;;;;;;5073291;28;20115;-83
2023/06/13 13:27:55;;;;;;;0.00;0.00;;;;;;;;;;5074512;28;20115;-83
2023/06/13 13:30:21;;;;;;;0.00;0.00;;;;;;;;;;5074070;28;20048;-82
2023/06/13 13:32:50;;;;;;;0.00;0.00;;;;;;;;;;5074444;28;20151;-82
2023/06/13 13:35:16;;;;;;;0.00;0.00;;;;;;;;;;5055998;28;20075;-83
2023/06/13 13:37:42;;;;;;;0.00;0.00;;;;;;;;;;5074259;28;20544;-82
2023/06/13 13:40:08;;;;;;;0.00;0.00;;;;;;;;;;5072561;28;20128;-82
2023/06/13 13:42:36;;;;;;;0.00;0.00;;;;;;;;;;5072947;28;20043;-82
2023/06/13 13:45:06;;;;;;;0.00;0.00;;;;;;;;;;5073768;28;20119;-82
2023/06/13 13:47:33;;;;;;;0.00;0.00;;;;;;;;;;5072912;28;20129;-81
2023/06/13 13:50:00;;;;;;;0.00;0.00;;;;;;;;;;5073675;28;20040;-82
2023/06/13 13:52:27;;;;;;;0.00;0.00;;;;;;;;;;5072563;28;20078;-82
2023/06/13 13:54:52;;;;;;;0.00;0.00;;;;;;;;;;5072197;28;20109;-82
2023/06/13 13:57:19;;;;;;;0.00;0.00;;;;;;;;;;5073770;28;20541;-82
2023/06/13 13:59:46;;;;;;;0.00;0.00;;;;;;;;;;5072297;28;20044;-82
2023/06/13 14:02:12;;;;;;;0.00;0.00;;;;;;;;;;5073756;28;20050;-82
2023/06/13 14:04:38;;;;;;;0.00;0.00;;;;;;;;;;5072021;28;20044;-82
2023/06/13 14:07:05;;;;;;;0.00;0.00;;;;;;;;;;5072218;28;20125;-82
2023/06/13 14:09:31;;;;;;;0.00;0.00;;;;;;;;;;5072174;28;20045;-82
2023/06/13 14:11:57;;;;;;;0.00;0.00;;;;;;;;;;5072477;28;20450;-82
2023/06/13 14:14:23;;;;;;;0.00;0.00;;;;;;;;;;5073229;28;20112;-82
2023/06/13 14:16:50;;;;;;;0.00;0.00;;;;;;;;;;5073183;28;20511;-83
2023/06/13 14:19:16;;;;;;;0.00;0.00;;;;;;;;;;5055346;28;20079;-83
2023/06/13 14:21:42;;;;;;;0.00;0.00;;;;;;;;;;5073478;28;20067;-81
2023/06/13 14:24:09;;;;;;;0.00;0.00;;;;;;;;;;5071693;28;20117;-83
2023/06/13 14:26:35;;;;;;;0.00;0.00;;;;;;;;;;5072305;28;20519;-82
2023/06/13 14:29:01;;;;;;;0.00;0.00;;;;;;;;;;5071932;28;20074;-82
2023/06/13 14:31:28;;;;;;;0.00;0.00;;;;;;;;;;5071785;28;20543;-82
2023/06/13 14:33:55;;;;;;;0.00;0.00;;;;;;;;;;5072917;28;20049;-82
2023/06/13 14:36:21;;;;;;;0.00;0.00;;;;;;;;;;5071727;28;20041;-82
2023/06/13 14:38:48;;;;;;;0.00;0.00;;;;;;;;;;5071530;28;20118;-82
2023/06/13 14:41:14;;;;;;;0.55;0.03;;;;;;;;;;5071632;28;20056;-82
2023/06/13 14:43:41;;;;;;;0.00;0.00;;;;;;;;;;5072915;28;20044;-82